sensor_id;sensor_type;location;lat;lon;timestamp;P1;durP1;ratioP1;P2;durP2;ratioP2
45366;SDS011;31100;55.848;37.636;2023-07-28T00:00:50;26.92;;;19.73;;
45366;SDS011;31100;55.848;37.636;2023-07-28T00:03:15;28.42;;;21.75;;
45366;SDS011;31100;55.848;37.636;2023-07-28T00:05:40;24.23;;;20.77;;
45366;SDS011;31100;55.848;37.636;2023-07-28T00:08:06;25.10;;;20.23;;
45366;SDS011;31100;55.848;37.636;2023-07-28T00:10:31;29.70;;;22.02;;
45366;SDS011;31100;55.848;37.636;2023-07-28T00:12:57;22.33;;;19.92;;
45366;SDS011;31100;55.848;37.636;2023-07-28T00:15:22;25.25;;;21.58;;
45366;SDS011;31100;55.848;37.636;2023-07-28T00:17:48;27.35;;;21.98;;
45366;SDS011;31100;55.848;37.636;2023-07-28T00:20:13;25.77;;;22.25;;
45366;SDS011;31100;55.848;37.636;2023-07-28T00:22:39;27.95;;;22.48;;
45366;SDS011;31100;55.848;37.636;2023-07-28T00:25:04;25.38;;;22.48;;
45366;SDS011;31100;55.848;37.636;2023-07-28T00:27:30;24.20;;;20.60;;
45366;SDS011;31100;55.848;37.636;2023-07-28T00:29:55;25.48;;;20.40;;
45366;SDS011;31100;55.848;37.636;2023-07-28T00:32:21;22.83;;;19.52;;
45366;SDS011;31100;55.848;37.636;2023-07-28T00:34:46;24.95;;;20.52;;
45366;SDS011;31100;55.848;37.636;2023-07-28T00:37:12;22.42;;;19.67;;
45366;SDS011;31100;55.848;37.636;2023-07-28T00:39:37;26.40;;;20.77;;
45366;SDS011;31100;55.848;37.636;2023-07-28T00:42:03;23.38;;;19.20;;
45366;SDS011;31100;55.848;37.636;2023-07-28T00:44:28;25.35;;;20.73;;
45366;SDS011;31100;55.848;37.636;2023-07-28T00:46:54;23.67;;;20.40;;
45366;SDS011;31100;55.848;37.636;2023-07-28T00:49:19;23.65;;;20.73;;
45366;SDS011;31100;55.848;37.636;2023-07-28T00:51:45;23.10;;;20.27;;
45366;SDS011;31100;55.848;37.636;2023-07-28T00:54:11;24.30;;;19.20;;
45366;SDS011;31100;55.848;37.636;2023-07-28T00:56:37;26.65;;;21.80;;
45366;SDS011;31100;55.848;37.636;2023-07-28T00:59:02;24.90;;;22.20;;
45366;SDS011;31100;55.848;37.636;2023-07-28T01:01:28;24.48;;;20.95;;
45366;SDS011;31100;55.848;37.636;2023-07-28T01:03:55;26.90;;;20.95;;
45366;SDS011;31100;55.848;37.636;2023-07-28T01:06:26;25.90;;;20.92;;
45366;SDS011;31100;55.848;37.636;2023-07-28T01:09:03;24.85;;;20.60;;
45366;SDS011;31100;55.848;37.636;2023-07-28T01:11:31;28.50;;;22.85;;
45366;SDS011;31100;55.848;37.636;2023-07-28T01:13:57;26.13;;;21.67;;
45366;SDS011;31100;55.848;37.636;2023-07-28T01:16:22;29.58;;;24.10;;
45366;SDS011;31100;55.848;37.636;2023-07-28T01:18:48;24.67;;;21.70;;
45366;SDS011;31100;55.848;37.636;2023-07-28T01:21:17;28.85;;;24.08;;
45366;SDS011;31100;55.848;37.636;2023-07-28T01:26:55;27.80;;;22.08;;
45366;SDS011;31100;55.848;37.636;2023-07-28T01:29:20;26.75;;;22.10;;
45366;SDS011;31100;55.848;37.636;2023-07-28T01:31:47;29.50;;;22.70;;
45366;SDS011;31100;55.848;37.636;2023-07-28T01:34:13;25.63;;;21.15;;
45366;SDS011;31100;55.848;37.636;2023-07-28T01:36:38;27.60;;;22.27;;
45366;SDS011;31100;55.848;37.636;2023-07-28T01:39:04;26.27;;;22.63;;
45366;SDS011;31100;55.848;37.636;2023-07-28T01:41:29;27.85;;;22.73;;
45366;SDS011;31100;55.848;37.636;2023-07-28T01:43:55;27.13;;;23.05;;
45366;SDS011;31100;55.848;37.636;2023-07-28T01:46:21;22.80;;;19.88;;
45366;SDS011;31100;55.848;37.636;2023-07-28T01:48:47;24.10;;;21.08;;
45366;SDS011;31100;55.848;37.636;2023-07-28T01:51:12;26.73;;;23.00;;
45366;SDS011;31100;55.848;37.636;2023-07-28T01:53:41;27.52;;;23.30;;
45366;SDS011;31100;55.848;37.636;2023-07-28T01:56:06;26.52;;;22.25;;
45366;SDS011;31100;55.848;37.636;2023-07-28T01:58:31;26.02;;;22.13;;
45366;SDS011;31100;55.848;37.636;2023-07-28T02:01:00;27.13;;;23.42;;
45366;SDS011;31100;55.848;37.636;2023-07-28T02:03:25;27.17;;;20.45;;
45366;SDS011;31100;55.848;37.636;2023-07-28T02:05:51;28.75;;;23.52;;
45366;SDS011;31100;55.848;37.636;2023-07-28T02:08:17;27.95;;;20.52;;
45366;SDS011;31100;55.848;37.636;2023-07-28T02:10:44;27.00;;;20.67;;
45366;SDS011;31100;55.848;37.636;2023-07-28T02:13:09;24.30;;;19.98;;
45366;SDS011;31100;55.848;37.636;2023-07-28T02:15:35;26.75;;;19.92;;
45366;SDS011;31100;55.848;37.636;2023-07-28T02:18:00;22.45;;;19.77;;
45366;SDS011;31100;55.848;37.636;2023-07-28T02:20:25;24.17;;;20.60;;
45366;SDS011;31100;55.848;37.636;2023-07-28T02:22:51;24.80;;;19.98;;
45366;SDS011;31100;55.848;37.636;2023-07-28T02:25:17;21.17;;;18.73;;
45366;SDS011;31100;55.848;37.636;2023-07-28T02:27:42;21.15;;;18.85;;
45366;SDS011;31100;55.848;37.636;2023-07-28T02:30:07;25.92;;;20.23;;
45366;SDS011;31100;55.848;37.636;2023-07-28T02:32:33;23.13;;;19.70;;
45366;SDS011;31100;55.848;37.636;2023-07-28T02:34:58;21.10;;;18.85;;
45366;SDS011;31100;55.848;37.636;2023-07-28T02:37:24;20.92;;;18.85;;
45366;SDS011;31100;55.848;37.636;2023-07-28T02:39:50;21.35;;;18.13;;
45366;SDS011;31100;55.848;37.636;2023-07-28T02:42:16;26.38;;;19.95;;
45366;SDS011;31100;55.848;37.636;2023-07-28T02:44:41;21.92;;;19.25;;
45366;SDS011;31100;55.848;37.636;2023-07-28T02:47:06;23.52;;;21.02;;
45366;SDS011;31100;55.848;37.636;2023-07-28T02:49:32;22.08;;;19.67;;
45366;SDS011;31100;55.848;37.636;2023-07-28T02:51:58;23.80;;;20.55;;
45366;SDS011;31100;55.848;37.636;2023-07-28T02:54:23;21.45;;;19.15;;
45366;SDS011;31100;55.848;37.636;2023-07-28T02:56:50;24.67;;;20.58;;
45366;SDS011;31100;55.848;37.636;2023-07-28T02:59:15;25.23;;;20.58;;
45366;SDS011;31100;55.848;37.636;2023-07-28T03:01:41;22.75;;;20.38;;
45366;SDS011;31100;55.848;37.636;2023-07-28T03:04:06;24.23;;;20.40;;
45366;SDS011;31100;55.848;37.636;2023-07-28T03:06:37;23.67;;;19.25;;
45366;SDS011;31100;55.848;37.636;2023-07-28T03:09:06;22.55;;;19.75;;
45366;SDS011;31100;55.848;37.636;2023-07-28T03:11:31;24.52;;;20.27;;
45366;SDS011;31100;55.848;37.636;2023-07-28T03:13:57;22.98;;;20.23;;
45366;SDS011;31100;55.848;37.636;2023-07-28T03:16:22;22.27;;;19.90;;
45366;SDS011;31100;55.848;37.636;2023-07-28T03:18:47;24.00;;;21.17;;
45366;SDS011;31100;55.848;37.636;2023-07-28T03:21:13;25.55;;;20.35;;
45366;SDS011;31100;55.848;37.636;2023-07-28T03:23:39;23.48;;;19.50;;
45366;SDS011;31100;55.848;37.636;2023-07-28T03:26:04;24.50;;;19.08;;
45366;SDS011;31100;55.848;37.636;2023-07-28T03:28:30;23.48;;;20.63;;
45366;SDS011;31100;55.848;37.636;2023-07-28T03:30:55;24.48;;;19.77;;
45366;SDS011;31100;55.848;37.636;2023-07-28T03:33:21;22.58;;;19.63;;
45366;SDS011;31100;55.848;37.636;2023-07-28T03:35:46;23.70;;;18.35;;
45366;SDS011;31100;55.848;37.636;2023-07-28T03:38:12;24.08;;;19.38;;
45366;SDS011;31100;55.848;37.636;2023-07-28T03:40:37;21.20;;;18.00;;
45366;SDS011;31100;55.848;37.636;2023-07-28T03:43:03;23.75;;;19.13;;
45366;SDS011;31100;55.848;37.636;2023-07-28T03:45:28;22.17;;;18.95;;
45366;SDS011;31100;55.848;37.636;2023-07-28T03:47:54;22.13;;;18.45;;
45366;SDS011;31100;55.848;37.636;2023-07-28T03:50:19;21.33;;;18.25;;
45366;SDS011;31100;55.848;37.636;2023-07-28T03:52:45;23.52;;;18.38;;
45366;SDS011;31100;55.848;37.636;2023-07-28T03:55:10;21.13;;;17.80;;
45366;SDS011;31100;55.848;37.636;2023-07-28T03:57:36;21.80;;;18.33;;
45366;SDS011;31100;55.848;37.636;2023-07-28T04:00:01;22.00;;;18.73;;
45366;SDS011;31100;55.848;37.636;2023-07-28T04:02:27;22.42;;;18.13;;
45366;SDS011;31100;55.848;37.636;2023-07-28T04:04:53;24.25;;;17.35;;
45366;SDS011;31100;55.848;37.636;2023-07-28T04:07:21;24.70;;;18.63;;
45366;SDS011;31100;55.848;37.636;2023-07-28T04:09:47;29.17;;;25.20;;
45366;SDS011;31100;55.848;37.636;2023-07-28T04:12:12;21.48;;;17.95;;
45366;SDS011;31100;55.848;37.636;2023-07-28T04:14:38;24.13;;;18.83;;
45366;SDS011;31100;55.848;37.636;2023-07-28T04:17:03;23.95;;;20.70;;
45366;SDS011;31100;55.848;37.636;2023-07-28T04:19:29;27.50;;;22.73;;
45366;SDS011;31100;55.848;37.636;2023-07-28T04:21:56;23.48;;;19.88;;
45366;SDS011;31100;55.848;37.636;2023-07-28T04:24:22;24.63;;;20.63;;
45366;SDS011;31100;55.848;37.636;2023-07-28T04:26:48;30.05;;;22.98;;
45366;SDS011;31100;55.848;37.636;2023-07-28T04:29:16;26.83;;;21.77;;
45366;SDS011;31100;55.848;37.636;2023-07-28T04:31:41;24.98;;;20.65;;
45366;SDS011;31100;55.848;37.636;2023-07-28T04:34:07;24.45;;;21.25;;
45366;SDS011;31100;55.848;37.636;2023-07-28T04:36:32;26.67;;;21.58;;
45366;SDS011;31100;55.848;37.636;2023-07-28T04:38:58;25.35;;;21.77;;
45366;SDS011;31100;55.848;37.636;2023-07-28T04:41:23;26.50;;;21.20;;
45366;SDS011;31100;55.848;37.636;2023-07-28T04:43:49;26.38;;;21.67;;
45366;SDS011;31100;55.848;37.636;2023-07-28T04:46:15;25.60;;;21.40;;
45366;SDS011;31100;55.848;37.636;2023-07-28T04:48:40;29.40;;;21.52;;
45366;SDS011;31100;55.848;37.636;2023-07-28T04:51:05;27.88;;;21.60;;
45366;SDS011;31100;55.848;37.636;2023-07-28T04:53:31;24.83;;;21.23;;
45366;SDS011;31100;55.848;37.636;2023-07-28T04:55:56;29.13;;;20.70;;
45366;SDS011;31100;55.848;37.636;2023-07-28T04:58:22;24.38;;;21.10;;
45366;SDS011;31100;55.848;37.636;2023-07-28T05:00:47;26.25;;;21.77;;
45366;SDS011;31100;55.848;37.636;2023-07-28T05:03:12;28.63;;;20.92;;
45366;SDS011;31100;55.848;37.636;2023-07-28T05:05:38;25.00;;;20.95;;
45366;SDS011;31100;55.848;37.636;2023-07-28T05:08:04;27.27;;;20.60;;
45366;SDS011;31100;55.848;37.636;2023-07-28T05:10:29;24.48;;;19.67;;
45366;SDS011;31100;55.848;37.636;2023-07-28T05:12:55;24.67;;;20.23;;
45366;SDS011;31100;55.848;37.636;2023-07-28T05:15:21;27.67;;;20.70;;
45366;SDS011;31100;55.848;37.636;2023-07-28T05:17:48;23.35;;;19.85;;
45366;SDS011;31100;55.848;37.636;2023-07-28T05:20:14;23.27;;;18.10;;
45366;SDS011;31100;55.848;37.636;2023-07-28T05:22:41;22.05;;;17.77;;
45366;SDS011;31100;55.848;37.636;2023-07-28T05:25:07;22.58;;;17.02;;
45366;SDS011;31100;55.848;37.636;2023-07-28T05:27:32;21.67;;;18.48;;
45366;SDS011;31100;55.848;37.636;2023-07-28T05:29:58;20.65;;;17.38;;
45366;SDS011;31100;55.848;37.636;2023-07-28T05:32:24;23.85;;;17.65;;
45366;SDS011;31100;55.848;37.636;2023-07-28T05:34:49;18.48;;;16.48;;
45366;SDS011;31100;55.848;37.636;2023-07-28T05:37:14;23.52;;;17.00;;
45366;SDS011;31100;55.848;37.636;2023-07-28T05:39:40;22.33;;;16.42;;
45366;SDS011;31100;55.848;37.636;2023-07-28T05:42:05;18.88;;;16.63;;
45366;SDS011;31100;55.848;37.636;2023-07-28T05:44:31;22.20;;;14.80;;
45366;SDS011;31100;55.848;37.636;2023-07-28T05:46:57;16.90;;;14.25;;
45366;SDS011;31100;55.848;37.636;2023-07-28T05:49:22;17.20;;;13.52;;
45366;SDS011;31100;55.848;37.636;2023-07-28T05:51:48;20.48;;;14.30;;
45366;SDS011;31100;55.848;37.636;2023-07-28T05:54:13;17.42;;;14.43;;
45366;SDS011;31100;55.848;37.636;2023-07-28T05:56:42;17.38;;;14.00;;
45366;SDS011;31100;55.848;37.636;2023-07-28T05:59:07;16.92;;;13.30;;
45366;SDS011;31100;55.848;37.636;2023-07-28T06:01:33;17.75;;;13.60;;
45366;SDS011;31100;55.848;37.636;2023-07-28T06:03:59;16.55;;;13.43;;
45366;SDS011;31100;55.848;37.636;2023-07-28T06:06:24;17.40;;;13.55;;
45366;SDS011;31100;55.848;37.636;2023-07-28T06:08:51;16.77;;;13.55;;
45366;SDS011;31100;55.848;37.636;2023-07-28T06:11:17;18.58;;;13.95;;
45366;SDS011;31100;55.848;37.636;2023-07-28T06:13:43;14.65;;;13.05;;
45366;SDS011;31100;55.848;37.636;2023-07-28T06:16:09;17.85;;;13.88;;
45366;SDS011;31100;55.848;37.636;2023-07-28T06:18:34;18.13;;;13.52;;
45366;SDS011;31100;55.848;37.636;2023-07-28T06:21:00;19.35;;;12.35;;
45366;SDS011;31100;55.848;37.636;2023-07-28T06:23:25;16.52;;;11.98;;
45366;SDS011;31100;55.848;37.636;2023-07-28T06:25:50;14.82;;;10.40;;
45366;SDS011;31100;55.848;37.636;2023-07-28T06:28:16;12.70;;;11.05;;
45366;SDS011;31100;55.848;37.636;2023-07-28T06:30:41;15.55;;;10.60;;
45366;SDS011;31100;55.848;37.636;2023-07-28T06:33:07;14.95;;;9.68;;
45366;SDS011;31100;55.848;37.636;2023-07-28T06:35:33;15.10;;;9.57;;
45366;SDS011;31100;55.848;37.636;2023-07-28T06:37:59;15.68;;;9.18;;
45366;SDS011;31100;55.848;37.636;2023-07-28T06:40:25;11.60;;;8.55;;
45366;SDS011;31100;55.848;37.636;2023-07-28T06:42:50;13.90;;;8.63;;
45366;SDS011;31100;55.848;37.636;2023-07-28T06:45:16;9.73;;;7.45;;
45366;SDS011;31100;55.848;37.636;2023-07-28T06:47:42;12.48;;;7.60;;
45366;SDS011;31100;55.848;37.636;2023-07-28T06:50:08;13.48;;;7.93;;
45366;SDS011;31100;55.848;37.636;2023-07-28T06:52:34;11.35;;;7.25;;
45366;SDS011;31100;55.848;37.636;2023-07-28T06:54:59;12.52;;;7.18;;
45366;SDS011;31100;55.848;37.636;2023-07-28T06:57:24;10.73;;;7.35;;
45366;SDS011;31100;55.848;37.636;2023-07-28T06:59:50;17.10;;;7.63;;
45366;SDS011;31100;55.848;37.636;2023-07-28T07:02:16;16.05;;;8.32;;
45366;SDS011;31100;55.848;37.636;2023-07-28T07:04:42;18.35;;;9.65;;
45366;SDS011;31100;55.848;37.636;2023-07-28T07:07:07;11.77;;;8.07;;
45366;SDS011;31100;55.848;37.636;2023-07-28T07:09:33;12.27;;;7.72;;
45366;SDS011;31100;55.848;37.636;2023-07-28T07:11:59;10.40;;;6.97;;
45366;SDS011;31100;55.848;37.636;2023-07-28T07:14:25;13.20;;;8.00;;
45366;SDS011;31100;55.848;37.636;2023-07-28T07:16:50;12.70;;;8.82;;
45366;SDS011;31100;55.848;37.636;2023-07-28T07:19:16;12.20;;;8.48;;
45366;SDS011;31100;55.848;37.636;2023-07-28T07:21:41;12.18;;;8.40;;
45366;SDS011;31100;55.848;37.636;2023-07-28T07:24:09;11.63;;;8.60;;
45366;SDS011;31100;55.848;37.636;2023-07-28T07:26:35;13.48;;;9.52;;
45366;SDS011;31100;55.848;37.636;2023-07-28T07:29:00;14.98;;;9.00;;
45366;SDS011;31100;55.848;37.636;2023-07-28T07:31:26;16.27;;;9.48;;
45366;SDS011;31100;55.848;37.636;2023-07-28T07:33:51;16.85;;;9.88;;
45366;SDS011;31100;55.848;37.636;2023-07-28T07:36:17;16.45;;;9.07;;
45366;SDS011;31100;55.848;37.636;2023-07-28T07:38:44;17.15;;;9.77;;
45366;SDS011;31100;55.848;37.636;2023-07-28T07:41:14;14.38;;;9.68;;
45366;SDS011;31100;55.848;37.636;2023-07-28T07:43:46;14.07;;;9.40;;
45366;SDS011;31100;55.848;37.636;2023-07-28T07:46:13;17.67;;;10.02;;
45366;SDS011;31100;55.848;37.636;2023-07-28T07:48:39;13.75;;;9.32;;
45366;SDS011;31100;55.848;37.636;2023-07-28T07:51:04;13.00;;;9.02;;
45366;SDS011;31100;55.848;37.636;2023-07-28T07:53:30;17.00;;;11.55;;
45366;SDS011;31100;55.848;37.636;2023-07-28T07:55:55;16.77;;;11.35;;
45366;SDS011;31100;55.848;37.636;2023-07-28T07:58:21;12.88;;;9.23;;
45366;SDS011;31100;55.848;37.636;2023-07-28T08:00:46;12.55;;;9.27;;
45366;SDS011;31100;55.848;37.636;2023-07-28T08:03:12;12.93;;;8.95;;
45366;SDS011;31100;55.848;37.636;2023-07-28T08:05:37;15.38;;;9.75;;
45366;SDS011;31100;55.848;37.636;2023-07-28T08:08:03;16.00;;;9.10;;
45366;SDS011;31100;55.848;37.636;2023-07-28T08:10:30;14.85;;;9.32;;
45366;SDS011;31100;55.848;37.636;2023-07-28T08:12:55;12.50;;;9.10;;
45366;SDS011;31100;55.848;37.636;2023-07-28T08:15:21;13.07;;;9.35;;
45366;SDS011;31100;55.848;37.636;2023-07-28T08:17:46;16.52;;;9.88;;
45366;SDS011;31100;55.848;37.636;2023-07-28T08:20:12;17.90;;;11.38;;
45366;SDS011;31100;55.848;37.636;2023-07-28T08:22:37;18.48;;;11.75;;
45366;SDS011;31100;55.848;37.636;2023-07-28T08:25:03;13.63;;;9.93;;
45366;SDS011;31100;55.848;37.636;2023-07-28T08:27:29;14.75;;;8.98;;
45366;SDS011;31100;55.848;37.636;2023-07-28T08:29:55;11.55;;;8.10;;
45366;SDS011;31100;55.848;37.636;2023-07-28T08:32:20;10.23;;;8.05;;
45366;SDS011;31100;55.848;37.636;2023-07-28T08:34:47;11.52;;;8.18;;
45366;SDS011;31100;55.848;37.636;2023-07-28T08:37:13;11.23;;;8.00;;
45366;SDS011;31100;55.848;37.636;2023-07-28T08:39:38;10.52;;;7.63;;
45366;SDS011;31100;55.848;37.636;2023-07-28T08:42:04;9.48;;;7.32;;
45366;SDS011;31100;55.848;37.636;2023-07-28T08:44:33;9.73;;;7.18;;
45366;SDS011;31100;55.848;37.636;2023-07-28T08:46:59;9.95;;;7.28;;
45366;SDS011;31100;55.848;37.636;2023-07-28T08:49:26;10.40;;;6.85;;
45366;SDS011;31100;55.848;37.636;2023-07-28T08:51:52;9.18;;;6.80;;
45366;SDS011;31100;55.848;37.636;2023-07-28T08:54:22;9.18;;;6.70;;
45366;SDS011;31100;55.848;37.636;2023-07-28T08:56:47;8.68;;;6.32;;
45366;SDS011;31100;55.848;37.636;2023-07-28T08:59:20;9.35;;;7.10;;
45366;SDS011;31100;55.848;37.636;2023-07-28T09:01:46;10.10;;;6.90;;
45366;SDS011;31100;55.848;37.636;2023-07-28T09:04:12;10.95;;;7.40;;
45366;SDS011;31100;55.848;37.636;2023-07-28T09:06:37;8.98;;;6.18;;
45366;SDS011;31100;55.848;37.636;2023-07-28T09:09:06;9.88;;;8.27;;
45366;SDS011;31100;55.848;37.636;2023-07-28T09:11:32;11.25;;;7.13;;
45366;SDS011;31100;55.848;37.636;2023-07-28T09:13:59;10.70;;;6.75;;
45366;SDS011;31100;55.848;37.636;2023-07-28T09:16:25;9.65;;;6.40;;
45366;SDS011;31100;55.848;37.636;2023-07-28T09:18:52;8.30;;;6.53;;
45366;SDS011;31100;55.848;37.636;2023-07-28T09:21:29;9.25;;;6.25;;
45366;SDS011;31100;55.848;37.636;2023-07-28T09:23:54;7.88;;;5.78;;
45366;SDS011;31100;55.848;37.636;2023-07-28T09:26:20;8.73;;;5.68;;
45366;SDS011;31100;55.848;37.636;2023-07-28T09:28:46;7.40;;;6.20;;
45366;SDS011;31100;55.848;37.636;2023-07-28T09:31:11;10.25;;;6.85;;
45366;SDS011;31100;55.848;37.636;2023-07-28T09:33:37;9.18;;;6.63;;
45366;SDS011;31100;55.848;37.636;2023-07-28T09:38:35;7.18;;;5.70;;
45366;SDS011;31100;55.848;37.636;2023-07-28T09:41:03;9.20;;;6.72;;
45366;SDS011;31100;55.848;37.636;2023-07-28T09:43:33;8.20;;;7.07;;
45366;SDS011;31100;55.848;37.636;2023-07-28T09:45:59;9.77;;;6.97;;
45366;SDS011;31100;55.848;37.636;2023-07-28T09:48:24;9.80;;;7.05;;
45366;SDS011;31100;55.848;37.636;2023-07-28T09:50:50;11.65;;;9.57;;
45366;SDS011;31100;55.848;37.636;2023-07-28T09:53:16;9.50;;;7.68;;
45366;SDS011;31100;55.848;37.636;2023-07-28T09:55:42;10.60;;;7.43;;
45366;SDS011;31100;55.848;37.636;2023-07-28T09:58:09;10.07;;;8.20;;
45366;SDS011;31100;55.848;37.636;2023-07-28T10:00:37;9.60;;;7.57;;
45366;SDS011;31100;55.848;37.636;2023-07-28T10:03:03;9.13;;;7.60;;
45366;SDS011;31100;55.848;37.636;2023-07-28T10:05:29;10.02;;;7.47;;
45366;SDS011;31100;55.848;37.636;2023-07-28T10:07:55;10.35;;;7.53;;
45366;SDS011;31100;55.848;37.636;2023-07-28T10:10:24;11.32;;;8.02;;
45366;SDS011;31100;55.848;37.636;2023-07-28T10:12:53;10.23;;;8.17;;
45366;SDS011;31100;55.848;37.636;2023-07-28T10:15:20;10.25;;;7.85;;
45366;SDS011;31100;55.848;37.636;2023-07-28T10:17:47;9.93;;;7.97;;
45366;SDS011;31100;55.848;37.636;2023-07-28T10:23:21;11.02;;;8.80;;
45366;SDS011;31100;55.848;37.636;2023-07-28T10:25:47;9.32;;;8.32;;
45366;SDS011;31100;55.848;37.636;2023-07-28T10:31:02;11.90;;;9.00;;
45366;SDS011;31100;55.848;37.636;2023-07-28T10:33:28;11.15;;;9.40;;
45366;SDS011;31100;55.848;37.636;2023-07-28T10:35:55;11.25;;;9.40;;
45366;SDS011;31100;55.848;37.636;2023-07-28T10:38:36;12.77;;;9.70;;
45366;SDS011;31100;55.848;37.636;2023-07-28T10:41:07;12.13;;;9.27;;
45366;SDS011;31100;55.848;37.636;2023-07-28T10:43:53;13.38;;;10.25;;
45366;SDS011;31100;55.848;37.636;2023-07-28T10:46:27;11.88;;;10.15;;
45366;SDS011;31100;55.848;37.636;2023-07-28T10:48:53;15.70;;;10.45;;
45366;SDS011;31100;55.848;37.636;2023-07-28T10:51:20;12.38;;;10.48;;
45366;SDS011;31100;55.848;37.636;2023-07-28T10:53:49;13.45;;;11.10;;
45366;SDS011;31100;55.848;37.636;2023-07-28T10:56:15;12.93;;;10.15;;
45366;SDS011;31100;55.848;37.636;2023-07-28T10:58:44;15.45;;;11.77;;
45366;SDS011;31100;55.848;37.636;2023-07-28T11:01:09;14.80;;;11.95;;
45366;SDS011;31100;55.848;37.636;2023-07-28T11:03:36;14.52;;;10.95;;
45366;SDS011;31100;55.848;37.636;2023-07-28T11:06:01;14.65;;;11.02;;
45366;SDS011;31100;55.848;37.636;2023-07-28T11:08:28;15.25;;;11.75;;
45366;SDS011;31100;55.848;37.636;2023-07-28T11:10:54;15.65;;;12.20;;
45366;SDS011;31100;55.848;37.636;2023-07-28T11:13:22;14.68;;;12.63;;
45366;SDS011;31100;55.848;37.636;2023-07-28T11:15:50;13.05;;;11.55;;
45366;SDS011;31100;55.848;37.636;2023-07-28T11:18:19;16.33;;;12.93;;
45366;SDS011;31100;55.848;37.636;2023-07-28T11:20:45;12.82;;;11.00;;
45366;SDS011;31100;55.848;37.636;2023-07-28T11:23:13;14.07;;;11.52;;
45366;SDS011;31100;55.848;37.636;2023-07-28T11:25:41;15.55;;;12.32;;
45366;SDS011;31100;55.848;37.636;2023-07-28T11:28:07;12.98;;;11.40;;
45366;SDS011;31100;55.848;37.636;2023-07-28T11:30:33;16.50;;;12.55;;
45366;SDS011;31100;55.848;37.636;2023-07-28T11:33:02;16.17;;;11.73;;
45366;SDS011;31100;55.848;37.636;2023-07-28T11:35:28;14.00;;;11.15;;
45366;SDS011;31100;55.848;37.636;2023-07-28T11:37:54;13.07;;;9.88;;
45366;SDS011;31100;55.848;37.636;2023-07-28T11:40:20;12.95;;;9.93;;
45366;SDS011;31100;55.848;37.636;2023-07-28T11:42:47;11.48;;;8.93;;
45366;SDS011;31100;55.848;37.636;2023-07-28T11:45:16;12.13;;;9.27;;
45366;SDS011;31100;55.848;37.636;2023-07-28T11:50:27;11.93;;;10.35;;
45366;SDS011;31100;55.848;37.636;2023-07-28T11:52:54;10.95;;;9.65;;
45366;SDS011;31100;55.848;37.636;2023-07-28T11:55:20;13.20;;;9.65;;
45366;SDS011;31100;55.848;37.636;2023-07-28T11:57:46;11.18;;;9.98;;
45366;SDS011;31100;55.848;37.636;2023-07-28T12:00:13;13.32;;;10.63;;
45366;SDS011;31100;55.848;37.636;2023-07-28T12:02:41;11.90;;;10.07;;
45366;SDS011;31100;55.848;37.636;2023-07-28T12:05:14;11.63;;;9.13;;
45366;SDS011;31100;55.848;37.636;2023-07-28T12:07:40;11.32;;;9.85;;
45366;SDS011;31100;55.848;37.636;2023-07-28T12:10:07;11.68;;;9.52;;
45366;SDS011;31100;55.848;37.636;2023-07-28T12:12:41;10.50;;;9.45;;
45366;SDS011;31100;55.848;37.636;2023-07-28T12:15:27;11.73;;;9.77;;
45366;SDS011;31100;55.848;37.636;2023-07-28T12:18:15;10.10;;;9.10;;
45366;SDS011;31100;55.848;37.636;2023-07-28T12:20:45;11.00;;;8.77;;
45366;SDS011;31100;55.848;37.636;2023-07-28T12:23:12;11.15;;;9.15;;
45366;SDS011;31100;55.848;37.636;2023-07-28T12:25:39;9.80;;;8.80;;
45366;SDS011;31100;55.848;37.636;2023-07-28T12:28:05;11.52;;;9.73;;
45366;SDS011;31100;55.848;37.636;2023-07-28T12:30:31;10.32;;;9.32;;
45366;SDS011;31100;55.848;37.636;2023-07-28T12:32:57;10.70;;;9.70;;
45366;SDS011;31100;55.848;37.636;2023-07-28T12:35:23;9.98;;;8.32;;
45366;SDS011;31100;55.848;37.636;2023-07-28T12:37:50;6.32;;;5.13;;
45366;SDS011;31100;55.848;37.636;2023-07-28T12:40:16;5.88;;;4.22;;
45366;SDS011;31100;55.848;37.636;2023-07-28T12:42:44;7.00;;;4.30;;
45366;SDS011;31100;55.848;37.636;2023-07-28T12:45:09;7.15;;;4.20;;
45366;SDS011;31100;55.848;37.636;2023-07-28T12:47:36;7.28;;;3.88;;
45366;SDS011;31100;55.848;37.636;2023-07-28T12:50:01;6.43;;;3.30;;
45366;SDS011;31100;55.848;37.636;2023-07-28T12:52:27;5.18;;;3.25;;
45366;SDS011;31100;55.848;37.636;2023-07-28T12:54:52;5.97;;;3.22;;
45366;SDS011;31100;55.848;37.636;2023-07-28T12:57:18;4.93;;;3.25;;
45366;SDS011;31100;55.848;37.636;2023-07-28T12:59:43;6.63;;;4.00;;
45366;SDS011;31100;55.848;37.636;2023-07-28T13:02:09;7.95;;;5.88;;
45366;SDS011;31100;55.848;37.636;2023-07-28T13:04:34;5.43;;;3.90;;
45366;SDS011;31100;55.848;37.636;2023-07-28T13:07:00;8.45;;;3.70;;
45366;SDS011;31100;55.848;37.636;2023-07-28T13:09:25;6.55;;;3.80;;
45366;SDS011;31100;55.848;37.636;2023-07-28T13:11:50;5.63;;;3.85;;
45366;SDS011;31100;55.848;37.636;2023-07-28T13:14:16;6.53;;;4.20;;
45366;SDS011;31100;55.848;37.636;2023-07-28T13:16:41;5.20;;;3.70;;
45366;SDS011;31100;55.848;37.636;2023-07-28T13:19:07;5.72;;;3.40;;
45366;SDS011;31100;55.848;37.636;2023-07-28T13:21:33;5.60;;;3.95;;
45366;SDS011;31100;55.848;37.636;2023-07-28T13:23:58;7.40;;;3.60;;
45366;SDS011;31100;55.848;37.636;2023-07-28T13:26:24;6.35;;;4.20;;
45366;SDS011;31100;55.848;37.636;2023-07-28T13:28:50;11.27;;;4.95;;
45366;SDS011;31100;55.848;37.636;2023-07-28T13:31:16;7.22;;;4.03;;
45366;SDS011;31100;55.848;37.636;2023-07-28T13:33:42;8.70;;;4.18;;
45366;SDS011;31100;55.848;37.636;2023-07-28T13:36:07;5.72;;;3.70;;
45366;SDS011;31100;55.848;37.636;2023-07-28T13:38:33;8.35;;;4.50;;
45366;SDS011;31100;55.848;37.636;2023-07-28T13:40:59;5.93;;;3.58;;
45366;SDS011;31100;55.848;37.636;2023-07-28T13:43:25;5.55;;;3.30;;
45366;SDS011;31100;55.848;37.636;2023-07-28T13:45:50;7.05;;;3.25;;
45366;SDS011;31100;55.848;37.636;2023-07-28T13:48:16;8.10;;;3.72;;
45366;SDS011;31100;55.848;37.636;2023-07-28T13:50:41;4.53;;;2.97;;
45366;SDS011;31100;55.848;37.636;2023-07-28T13:53:07;6.63;;;2.95;;
45366;SDS011;31100;55.848;37.636;2023-07-28T13:55:32;7.15;;;3.55;;
45366;SDS011;31100;55.848;37.636;2023-07-28T13:57:58;7.07;;;3.10;;
45366;SDS011;31100;55.848;37.636;2023-07-28T14:00:23;8.07;;;3.40;;
45366;SDS011;31100;55.848;37.636;2023-07-28T14:02:48;8.68;;;3.42;;
45366;SDS011;31100;55.848;37.636;2023-07-28T14:05:14;10.65;;;3.38;;
45366;SDS011;31100;55.848;37.636;2023-07-28T14:07:39;6.75;;;4.30;;
45366;SDS011;31100;55.848;37.636;2023-07-28T14:10:05;5.55;;;3.50;;
45366;SDS011;31100;55.848;37.636;2023-07-28T14:12:30;5.82;;;3.25;;
45366;SDS011;31100;55.848;37.636;2023-07-28T14:14:56;4.80;;;3.30;;
45366;SDS011;31100;55.848;37.636;2023-07-28T14:17:21;7.80;;;4.72;;
45366;SDS011;31100;55.848;37.636;2023-07-28T14:19:47;5.68;;;3.50;;
45366;SDS011;31100;55.848;37.636;2023-07-28T14:22:13;4.55;;;3.00;;
45366;SDS011;31100;55.848;37.636;2023-07-28T14:24:38;6.82;;;3.40;;
45366;SDS011;31100;55.848;37.636;2023-07-28T14:27:04;5.85;;;3.20;;